createdAt,value
2022-09-26T00:03:03.748Z,100735.69
2022-09-26T00:08:29.414Z,100730.06
2022-09-26T00:13:54.745Z,100727.31
2022-09-26T00:19:21.193Z,100727.78
2022-09-26T00:24:45.845Z,100724.78
2022-09-26T00:30:11.653Z,100718.88
2022-09-26T00:35:38.789Z,100709.78
2022-09-26T00:41:05.172Z,100703.13
2022-09-26T00:46:34.155Z,100701.22
2022-09-26T00:52:04.807Z,100691.63
2022-09-26T00:57:34.282Z,100689.59
2022-09-26T01:02:59.526Z,100683.41
2022-09-26T01:08:32.164Z,100674.19
2022-09-26T01:13:58.843Z,100661.19
2022-09-26T01:19:30.388Z,100665.72
2022-09-26T01:25:15.364Z,100664.78
2022-09-26T01:30:46.850Z,100672.25
2022-09-26T01:36:32.608Z,100674.09
2022-09-26T01:42:08.732Z,100666.53
2022-09-26T01:47:42.188Z,100654.00
2022-09-26T01:53:13.186Z,100656.72
2022-09-26T01:58:42.770Z,100639.97
2022-09-26T02:04:12.362Z,100639.75
2022-09-26T02:09:39.934Z,100639.31
2022-09-26T02:15:11.973Z,100640.75
2022-09-26T02:20:39.270Z,100651.41
2022-09-26T02:26:04.314Z,100649.91
2022-09-26T02:31:33.134Z,100645.44
2022-09-26T02:37:01.250Z,100638.94
2022-09-26T02:42:36.635Z,100637.66
2022-09-26T02:48:24.781Z,100644.78
2022-09-26T02:54:05.681Z,100650.50
2022-09-26T02:59:49.514Z,100651.72
2022-09-26T03:05:20.448Z,100635.47
2022-09-26T03:10:48.351Z,100636.59
2022-09-26T03:16:14.726Z,100625.72
2022-09-26T03:21:39.449Z,100627.38
2022-09-26T03:27:08.584Z,100620.69
2022-09-26T03:32:33.454Z,100619.97
2022-09-26T03:37:58.370Z,100613.09
2022-09-26T03:43:25.665Z,100614.97
2022-09-26T03:48:51.636Z,100610.81
2022-09-26T03:54:16.699Z,100622.53
2022-09-26T03:59:44.492Z,100622.97
2022-09-26T04:05:11.296Z,100624.66
2022-09-26T04:10:37.315Z,100626.31
2022-09-26T04:16:05.301Z,100625.25
2022-09-26T04:21:30.042Z,100623.13
2022-09-26T04:26:55.945Z,100622.53
2022-09-26T04:32:22.833Z,100632.81
2022-09-26T04:38:10.658Z,100637.00
2022-09-26T04:43:37.469Z,100612.09
2022-09-26T04:49:06.046Z,100605.00
2022-09-26T04:54:32.085Z,100609.81
2022-09-26T04:59:57.588Z,100611.19
2022-09-26T05:05:26.290Z,100592.81
2022-09-26T05:10:55.001Z,100592.88
2022-09-26T05:16:19.577Z,100599.13
2022-09-26T05:21:51.583Z,100621.22
2022-09-26T05:27:19.236Z,100618.53
2022-09-26T05:32:46.124Z,100612.66
2022-09-26T05:38:11.952Z,100617.97
2022-09-26T05:43:38.754Z,100628.19
2022-09-26T05:49:07.114Z,100635.06
2022-09-26T05:54:33.349Z,100635.78
2022-09-26T06:00:02.836Z,100627.59
2022-09-26T06:05:46.688Z,100634.59
2022-09-26T06:11:27.482Z,100628.78
2022-09-26T06:16:52.169Z,100614.44
2022-09-26T06:22:16.589Z,100618.50
2022-09-26T06:27:42.523Z,100610.28
2022-09-26T06:33:06.991Z,100617.38
2022-09-26T06:38:36.905Z,100623.47
2022-09-26T06:44:04.254Z,100625.81
2022-09-26T06:49:55.265Z,100627.94
2022-09-26T06:55:24.061Z,100644.22
2022-09-26T07:00:49.631Z,100636.69
2022-09-26T07:06:25.049Z,100645.50
2022-09-26T07:12:14.018Z,100645.09
2022-09-26T07:17:35.315Z,100643.47
2022-09-26T07:23:06.736Z,100634.94
2022-09-26T07:28:32.299Z,100646.88
2022-09-26T07:33:58.308Z,100642.44
2022-09-26T07:39:23.033Z,100638.81
2022-09-26T07:50:34.677Z,100645.44
2022-09-26T07:56:10.417Z,100646.44
2022-09-26T08:01:55.748Z,100643.09
2022-09-26T08:07:39.736Z,100639.59
2022-09-26T08:13:12.140Z,100636.63
2022-09-26T08:18:50.977Z,100623.19
2022-09-26T08:24:18.059Z,100622.41
2022-09-26T08:29:58.705Z,100606.81
2022-09-26T08:35:23.570Z,100607.91
2022-09-26T08:41:32.829Z,100599.09
2022-09-26T08:47:21.629Z,100579.97
2022-09-26T08:53:11.047Z,100576.94
2022-09-26T08:58:48.272Z,100577.81
2022-09-26T09:04:18.713Z,100581.06
2022-09-26T09:09:43.790Z,100585.84
2022-09-26T09:15:46.600Z,100588.78
2022-09-26T09:21:28.670Z,100582.75
2022-09-26T09:33:15.704Z,100563.84
2022-09-26T09:38:48.128Z,100566.16
2022-09-26T09:44:37.371Z,100550.91
2022-09-26T09:50:03.391Z,100552.66
2022-09-26T09:55:43.497Z,100545.63
2022-09-26T10:01:16.232Z,100553.00
2022-09-26T10:06:46.328Z,100552.84
2022-09-26T10:12:18.331Z,100555.53
2022-09-26T10:18:25.095Z,100540.25
2022-09-26T10:24:10.521Z,100530.63
2022-09-26T10:29:47.343Z,100519.69
2022-09-26T10:35:20.120Z,100508.69
2022-09-26T10:40:54.997Z,100517.75
2022-09-26T10:46:24.591Z,100510.72
2022-09-26T10:52:18.188Z,100497.34
2022-09-26T10:57:49.132Z,100502.94
2022-09-26T11:03:18.930Z,100487.94
2022-09-26T11:09:22.311Z,100495.00
2022-09-26T11:15:10.122Z,100484.19
2022-09-26T11:20:45.245Z,100470.69
2022-09-26T11:26:17.086Z,100474.94
2022-09-26T11:31:44.044Z,100466.00
2022-09-26T11:38:05.568Z,100462.75
2022-09-26T11:43:45.541Z,100444.97
2022-09-26T11:49:40.149Z,100458.94
2022-09-26T11:55:32.278Z,100444.59
2022-09-26T12:01:05.573Z,100438.69
2022-09-26T12:06:35.306Z,100446.16
2022-09-26T12:12:10.104Z,100441.44
2022-09-26T12:17:44.966Z,100446.00
2022-09-26T12:23:22.070Z,100445.84
2022-09-26T12:29:04.644Z,100446.22
2022-09-26T12:34:43.648Z,100435.91
2022-09-26T12:40:29.218Z,100434.03
2022-09-26T12:46:38.146Z,100431.19
2022-09-26T12:52:11.347Z,100420.97
2022-09-26T12:57:43.133Z,100420.97
2022-09-26T13:03:32.874Z,100413.44
2022-09-26T13:09:15.974Z,100414.03
2022-09-26T13:15:02.779Z,100419.41
2022-09-26T13:20:33.265Z,100425.59
2022-09-26T13:26:01.222Z,100414.94
2022-09-26T13:31:32.653Z,100417.53
2022-09-26T13:37:00.425Z,100411.38
2022-09-26T13:42:36.322Z,100399.16
2022-09-26T13:48:09.210Z,100407.97
2022-09-26T13:53:41.231Z,100412.06
2022-09-26T13:59:06.864Z,100417.00
2022-09-26T14:04:36.491Z,100420.53
2022-09-26T14:10:14.172Z,100404.72
2022-09-26T14:15:57.997Z,100395.22
2022-09-26T14:21:42.190Z,100401.22
2022-09-26T14:27:44.385Z,100403.06
2022-09-26T14:33:14.935Z,100404.84
2022-09-26T14:38:41.988Z,100389.31
2022-09-26T14:44:19.013Z,100399.84
2022-09-26T14:49:44.506Z,100409.88
2022-09-26T14:55:16.649Z,100409.41
2022-09-26T15:00:47.585Z,100409.44
2022-09-26T15:06:14.615Z,100410.09
2022-09-26T15:11:47.241Z,100396.97
2022-09-26T15:17:19.716Z,100389.31
2022-09-26T15:22:46.234Z,100383.59
2022-09-26T15:28:12.900Z,100394.06
2022-09-26T15:33:39.931Z,100411.69
2022-09-26T15:39:42.140Z,100402.34
2022-09-26T15:45:23.090Z,100385.88
2022-09-26T15:50:51.281Z,100408.44
2022-09-26T15:56:20.341Z,100407.03
2022-09-26T16:01:48.807Z,100404.31
2022-09-26T16:07:20.684Z,100399.63
2022-09-26T16:12:45.640Z,100403.22
2022-09-26T16:18:27.457Z,100409.25
2022-09-26T16:23:53.369Z,100407.56
2022-09-26T16:29:30.949Z,100399.31
2022-09-26T16:35:12.289Z,100395.47
2022-09-26T16:40:37.317Z,100380.06
2022-09-26T16:46:03.525Z,100389.69
2022-09-26T16:51:32.797Z,100406.97
2022-09-26T16:56:58.177Z,100388.28
2022-09-26T17:02:27.308Z,100382.25
2022-09-26T17:07:53.974Z,100394.84
2022-09-26T17:13:22.860Z,100391.00
2022-09-26T17:18:47.118Z,100393.47
2022-09-26T17:24:16.391Z,100372.03
2022-09-26T17:29:45.075Z,100359.13
2022-09-26T17:35:16.928Z,100378.88
2022-09-26T17:40:45.767Z,100378.31
2022-09-26T17:46:15.349Z,100366.50
2022-09-26T17:51:40.720Z,100356.88
2022-09-26T17:57:09.960Z,100359.31
2022-09-26T18:02:37.984Z,100346.94
2022-09-26T18:08:10.246Z,100345.19
2022-09-26T18:13:39.438Z,100336.97
2022-09-26T18:19:07.543Z,100335.84
2022-09-26T18:24:32.873Z,100345.13
2022-09-26T18:29:59.051Z,100361.22
2022-09-26T18:35:27.118Z,100345.84
2022-09-26T18:40:55.320Z,100356.56
2022-09-26T18:46:22.897Z,100338.44
2022-09-26T18:51:52.334Z,100341.72
2022-09-26T18:57:34.277Z,100346.06
2022-09-26T19:03:00.253Z,100346.00
2022-09-26T19:08:33.545Z,100361.91
2022-09-26T19:14:00.736Z,100336.16
2022-09-26T19:19:28.673Z,100310.38
2022-09-26T19:24:55.304Z,100309.78
2022-09-26T19:30:22.225Z,100298.81
2022-09-26T19:35:49.096Z,100314.63
2022-09-26T19:41:17.469Z,100293.22
2022-09-26T19:46:42.510Z,100318.91
2022-09-26T19:52:15.987Z,100311.69
2022-09-26T19:57:42.710Z,100293.50
2022-09-26T20:03:15.630Z,100294.03
2022-09-26T20:08:44.113Z,100297.03
2022-09-26T20:14:26.676Z,100292.28
2022-09-26T20:19:58.967Z,100301.81
2022-09-26T20:25:29.634Z,100311.03
2022-09-26T20:30:59.209Z,100315.13
2022-09-26T20:36:31.511Z,100301.88
2022-09-26T20:42:00.136Z,100304.34
2022-09-26T20:47:27.015Z,100288.06
2022-09-26T20:52:52.667Z,100289.72
2022-09-26T20:58:19.082Z,100285.38
2022-09-26T21:03:49.151Z,100276.91
2022-09-26T21:09:16.918Z,100286.44
2022-09-26T21:14:43.762Z,100284.16
2022-09-26T21:20:16.603Z,100299.41
2022-09-26T21:26:05.377Z,100278.69
2022-09-26T21:31:34.578Z,100274.66
2022-09-26T21:37:00.429Z,100259.66
2022-09-26T21:42:26.919Z,100265.81
2022-09-26T21:47:53.454Z,100254.88
2022-09-26T21:53:22.256Z,100240.09
2022-09-26T21:58:48.066Z,100239.25
2022-09-26T22:04:14.532Z,100232.38
2022-09-26T22:09:39.277Z,100213.22
2022-09-26T22:15:06.202Z,100202.25
2022-09-26T22:20:32.446Z,100208.53
2022-09-26T22:25:57.191Z,100219.69
2022-09-26T22:31:22.250Z,100216.91
2022-09-26T22:36:51.351Z,100205.97
2022-09-26T22:42:15.901Z,100184.34
2022-09-26T22:47:40.528Z,100202.41
2022-09-26T22:53:07.083Z,100201.00
2022-09-26T22:58:33.165Z,100199.38
2022-09-26T23:04:00.410Z,100197.16
2022-09-26T23:09:26.477Z,100175.53
2022-09-26T23:14:51.043Z,100161.28
2022-09-26T23:20:15.422Z,100155.22
2022-09-26T23:25:46.671Z,100155.81
2022-09-26T23:31:11.829Z,100151.16
2022-09-26T23:36:36.584Z,100130.09
2022-09-26T23:42:03.186Z,100127.81
2022-09-26T23:47:27.232Z,100130.28
2022-09-26T23:52:52.514Z,100136.56
2022-09-26T23:58:21.242Z,100124.53
